createdAt,value
2022-12-03T00:00:53.310Z,101656.91
2022-12-03T00:01:56.169Z,101651.75
2022-12-03T00:02:58.905Z,101657.78
2022-12-03T00:04:01.621Z,101661.25
2022-12-03T00:05:04.594Z,101659.53
2022-12-03T00:06:07.398Z,101661.22
2022-12-03T00:07:10.358Z,101661.22
2022-12-03T00:08:13.150Z,101664.69
2022-12-03T00:09:17.038Z,101667.25
2022-12-03T00:10:20.241Z,101662.94
2022-12-03T00:11:22.722Z,101659.50
2022-12-03T00:12:25.595Z,101661.22
2022-12-03T00:13:28.733Z,101666.38
2022-12-03T00:14:31.370Z,101662.06
2022-12-03T00:15:33.942Z,101660.34
2022-12-03T00:16:36.965Z,101664.66
2022-12-03T00:17:40.465Z,101662.94
2022-12-03T00:18:43.220Z,101662.06
2022-12-03T00:19:45.821Z,101658.62
2022-12-03T00:20:48.946Z,101661.22
2022-12-03T00:21:51.476Z,101667.25
2022-12-03T00:22:54.397Z,101668.97
2022-12-03T00:23:57.242Z,101670.72
2022-12-03T00:24:59.815Z,101668.09
2022-12-03T00:26:02.473Z,101666.41
2022-12-03T00:27:05.549Z,101664.69
2022-12-03T00:28:08.416Z,101667.28
2022-12-03T00:29:11.376Z,101662.09
2022-12-03T00:30:14.516Z,101670.72
2022-12-03T00:31:18.738Z,101673.28
2022-12-03T00:32:21.475Z,101673.28
2022-12-03T00:33:24.602Z,101673.31
2022-12-03T00:34:27.198Z,101675.03
2022-12-03T00:35:29.858Z,101681.06
2022-12-03T00:36:32.973Z,101672.44
2022-12-03T00:37:35.553Z,101677.63
2022-12-03T00:38:38.428Z,101676.78
2022-12-03T00:39:40.965Z,101678.50
2022-12-03T00:40:44.023Z,101678.47
2022-12-03T00:41:47.423Z,101676.78
2022-12-03T00:42:49.961Z,101675.91
2022-12-03T00:43:57.422Z,101675.06
2022-12-03T00:45:00.222Z,101675.91
2022-12-03T00:46:02.822Z,101687.09
2022-12-03T00:47:06.091Z,101672.47
2022-12-03T00:48:08.702Z,101680.22
2022-12-03T00:49:11.503Z,101677.63
2022-12-03T00:50:14.374Z,101681.94
2022-12-03T00:51:17.042Z,101679.34
2022-12-03T00:52:19.637Z,101680.22
2022-12-03T00:53:22.687Z,101663.84
2022-12-03T00:54:31.402Z,101685.38
2022-12-03T00:55:34.585Z,101683.66
2022-12-03T00:56:37.486Z,101675.03
2022-12-03T00:57:40.145Z,101681.06
2022-12-03T00:58:43.098Z,101672.44
2022-12-03T00:59:45.986Z,101672.44
2022-12-03T01:00:49.079Z,101677.59
2022-12-03T01:01:51.815Z,101671.56
2022-12-03T01:02:54.519Z,101675.03
2022-12-03T01:03:57.507Z,101676.75
2022-12-03T01:05:00.885Z,101673.28
2022-12-03T01:06:03.953Z,101669.88
2022-12-03T01:07:07.011Z,101673.28
2022-12-03T01:08:09.670Z,101677.63
2022-12-03T01:09:12.303Z,101682.81
2022-12-03T01:10:15.561Z,101682.78
2022-12-03T01:11:37.238Z,101685.38
2022-12-03T01:12:40.051Z,101681.06
2022-12-03T01:13:42.598Z,101676.72
2022-12-03T01:14:46.499Z,101679.31
2022-12-03T01:15:49.405Z,101674.16
2022-12-03T01:16:52.094Z,101672.41
2022-12-03T01:17:55.220Z,101679.31
2022-12-03T01:18:57.848Z,101673.28
2022-12-03T01:20:01.670Z,101673.25
2022-12-03T01:21:05.083Z,101663.78
2022-12-03T01:22:08.493Z,101662.91
2022-12-03T01:23:11.040Z,101664.66
2022-12-03T01:24:14.421Z,101660.34
2022-12-03T01:25:17.979Z,101658.62
2022-12-03T01:26:20.829Z,101656.03
2022-12-03T01:27:23.443Z,101661.22
2022-12-03T01:28:27.039Z,101656.91
2022-12-03T01:29:29.647Z,101663.78
2022-12-03T01:30:52.717Z,101665.50
2022-12-03T01:32:14.356Z,101658.62
2022-12-03T01:33:16.909Z,101662.09
2022-12-03T01:34:20.063Z,101667.25
2022-12-03T01:35:22.645Z,101652.62
2022-12-03T01:36:26.016Z,101667.28
2022-12-03T01:37:28.988Z,101661.22
2022-12-03T01:38:31.937Z,101670.72
2022-12-03T01:39:34.517Z,101662.94
2022-12-03T01:40:37.580Z,101665.53
2022-12-03T01:41:40.908Z,101668.13
2022-12-03T01:42:44.107Z,101670.72
2022-12-03T01:43:48.102Z,101672.44
2022-12-03T01:44:56.023Z,101669.88
2022-12-03T01:45:58.783Z,101662.94
2022-12-03T01:47:06.366Z,101669.88
2022-12-03T01:48:13.013Z,101669.84
2022-12-03T01:49:20.389Z,101664.69
2022-12-03T01:50:32.115Z,101674.16
2022-12-03T01:51:34.667Z,101668.13
2022-12-03T01:52:39.076Z,101669.84
2022-12-03T01:53:43.820Z,101670.72
2022-12-03T01:54:51.125Z,101672.44
2022-12-03T01:55:54.091Z,101671.56
2022-12-03T01:56:57.927Z,101676.75
2022-12-03T01:58:02.277Z,101666.41
2022-12-03T01:59:05.738Z,101672.44
2022-12-03T02:00:17.062Z,101670.69
2022-12-03T02:01:19.945Z,101673.28
2022-12-03T02:02:31.523Z,101668.97
2022-12-03T02:03:34.510Z,101671.56
2022-12-03T02:04:37.387Z,101670.72
2022-12-03T02:05:39.976Z,101674.16
2022-12-03T02:06:45.664Z,101667.25
2022-12-03T02:07:48.627Z,101666.41
2022-12-03T02:08:51.483Z,101658.62
2022-12-03T02:09:56.827Z,101661.22
2022-12-03T02:11:04.463Z,101664.69
2022-12-03T02:12:07.090Z,101653.44
2022-12-03T02:13:10.784Z,101658.62
2022-12-03T02:14:19.115Z,101667.28
2022-12-03T02:15:22.085Z,101661.22
2022-12-03T02:16:25.356Z,101662.06
2022-12-03T02:17:28.637Z,101661.22
2022-12-03T02:18:31.395Z,101667.28
2022-12-03T02:19:34.565Z,101662.06
2022-12-03T02:20:56.175Z,101662.94
2022-12-03T02:22:18.031Z,101659.50
2022-12-03T02:23:36.318Z,101661.22
2022-12-03T02:24:56.507Z,101656.03
2022-12-03T02:25:59.726Z,101661.22
2022-12-03T02:27:03.649Z,101662.94
2022-12-03T02:28:08.961Z,101658.62
2022-12-03T02:29:11.938Z,101665.53
2022-12-03T02:30:19.132Z,101662.09
2022-12-03T02:31:23.414Z,101668.13
2022-12-03T02:32:26.174Z,101671.56
2022-12-03T02:33:28.739Z,101664.69
2022-12-03T02:34:34.655Z,101667.28
2022-12-03T02:35:38.375Z,101665.53
2022-12-03T02:36:41.215Z,101668.09
2022-12-03T02:37:46.624Z,101666.41
2022-12-03T02:38:50.520Z,101670.69
2022-12-03T02:39:58.882Z,101672.44
2022-12-03T02:41:06.777Z,101674.16
2022-12-03T02:42:29.906Z,101663.81
2022-12-03T02:43:32.761Z,101679.34
2022-12-03T02:44:35.939Z,101676.75
2022-12-03T02:45:41.382Z,101675.91
2022-12-03T02:46:44.641Z,101673.28
2022-12-03T02:47:54.715Z,101665.53
2022-12-03T02:48:58.117Z,101665.53
2022-12-03T02:50:01.379Z,101669.88
2022-12-03T02:51:07.996Z,101670.72
2022-12-03T02:52:11.021Z,101672.47
2022-12-03T02:53:24.911Z,101669.00
2022-12-03T02:54:27.444Z,101670.69
2022-12-03T02:55:36.770Z,101669.00
2022-12-03T02:56:40.501Z,101670.72
2022-12-03T02:57:46.635Z,101672.44
2022-12-03T02:58:53.339Z,101673.31
2022-12-03T02:59:56.389Z,101674.16
2022-12-03T03:01:00.840Z,101673.28
2022-12-03T03:02:04.231Z,101675.06
2022-12-03T03:03:08.315Z,101675.06
2022-12-03T03:04:11.351Z,101673.28
2022-12-03T03:05:16.141Z,101673.28
2022-12-03T03:06:19.719Z,101674.16
2022-12-03T03:07:23.075Z,101675.03
2022-12-03T03:08:27.356Z,101680.22
2022-12-03T03:09:30.516Z,101673.31
2022-12-03T03:10:35.362Z,101675.88
2022-12-03T03:11:38.429Z,101678.47
2022-12-03T03:12:41.212Z,101678.47
2022-12-03T03:13:44.093Z,101680.22
2022-12-03T03:14:47.203Z,101679.34
2022-12-03T03:15:50.429Z,101674.16
2022-12-03T03:16:56.282Z,101677.63
2022-12-03T03:17:59.035Z,101668.13
2022-12-03T03:19:02.655Z,101668.16
2022-12-03T03:20:07.012Z,101676.75
2022-12-03T03:21:09.723Z,101676.78
2022-12-03T03:22:12.653Z,101677.66
2022-12-03T03:23:18.997Z,101674.16
2022-12-03T03:24:22.490Z,101671.59
2022-12-03T03:25:25.410Z,101672.47
2022-12-03T03:26:28.816Z,101674.19
2022-12-03T03:27:31.525Z,101676.75
2022-12-03T03:28:40.438Z,101678.50
2022-12-03T03:29:43.433Z,101674.19
2022-12-03T03:30:47.261Z,101680.22
2022-12-03T03:31:50.093Z,101672.44
2022-12-03T03:32:53.180Z,101678.50
2022-12-03T03:33:56.192Z,101676.78
2022-12-03T03:34:59.040Z,101682.81
2022-12-03T03:36:02.564Z,101678.50
2022-12-03T03:37:05.308Z,101680.22
2022-12-03T03:38:09.464Z,101674.19
2022-12-03T03:39:13.059Z,101676.78
2022-12-03T03:40:15.756Z,101682.81
2022-12-03T03:41:21.021Z,101671.59
2022-12-03T03:42:24.235Z,101674.19
2022-12-03T03:43:28.114Z,101650.91
2022-12-03T03:44:30.822Z,101674.19
2022-12-03T03:45:33.718Z,101678.50
2022-12-03T03:46:38.420Z,101674.19
2022-12-03T03:47:41.719Z,101663.84
2022-12-03T03:48:44.456Z,101668.16
2022-12-03T03:49:49.598Z,101671.59
2022-12-03T03:50:52.855Z,101675.03
2022-12-03T03:51:55.778Z,101673.34
2022-12-03T03:53:02.668Z,101673.31
2022-12-03T03:54:06.102Z,101673.31
2022-12-03T03:55:11.793Z,101676.78
2022-12-03T03:56:16.235Z,101670.75
2022-12-03T03:57:20.634Z,101678.50
2022-12-03T03:58:23.380Z,101676.78
2022-12-03T03:59:26.014Z,101675.03
2022-12-03T04:00:30.430Z,101678.50
2022-12-03T04:01:33.902Z,101673.34
2022-12-03T04:02:36.660Z,101679.34
2022-12-03T04:03:40.199Z,101673.31
2022-12-03T04:04:42.774Z,101682.81
2022-12-03T04:05:45.358Z,101679.34
2022-12-03T04:06:49.476Z,101685.38
2022-12-03T04:07:52.394Z,101682.81
2022-12-03T04:08:55.492Z,101681.97
2022-12-03T04:09:58.031Z,101686.25
2022-12-03T04:11:20.299Z,101677.66
2022-12-03T04:12:41.741Z,101681.94
2022-12-03T04:13:44.320Z,101682.81
2022-12-03T04:14:46.832Z,101683.69
2022-12-03T04:15:50.757Z,101685.38
2022-12-03T04:16:53.387Z,101683.66
2022-12-03T04:18:15.425Z,101685.38
2022-12-03T04:19:18.128Z,101688.84
2022-12-03T04:20:21.071Z,101625.03
2022-12-03T04:21:42.792Z,101682.81
2022-12-03T04:22:45.327Z,101687.13
2022-12-03T04:23:48.111Z,101684.50
2022-12-03T04:24:51.459Z,101685.38
2022-12-03T04:26:12.895Z,101682.81
2022-12-03T04:27:34.829Z,101689.69
2022-12-03T04:28:49.602Z,101686.25
2022-12-03T04:29:52.442Z,101690.56
2022-12-03T04:30:55.481Z,101688.84
2022-12-03T04:32:16.735Z,101688.84
2022-12-03T04:33:38.261Z,101689.69
2022-12-03T04:34:59.967Z,101690.56
2022-12-03T04:36:03.019Z,101690.56
2022-12-03T04:37:06.477Z,101692.28
2022-12-03T04:38:13.170Z,101683.63
2022-12-03T04:39:15.697Z,101686.22
2022-12-03T04:40:36.868Z,101689.66
2022-12-03T04:41:39.786Z,101686.22
2022-12-03T04:42:42.632Z,101698.28
2022-12-03T04:44:04.347Z,101698.28
2022-12-03T04:45:07.872Z,101702.59
2022-12-03T04:46:11.069Z,101700.84
2022-12-03T04:47:19.410Z,101708.59
2022-12-03T04:48:22.807Z,101668.91
2022-12-03T04:49:25.798Z,101709.44
2022-12-03T04:50:28.659Z,101706.00
2022-12-03T04:51:31.258Z,101704.25
2022-12-03T04:52:34.884Z,101702.56
2022-12-03T04:53:40.754Z,101705.13
2022-12-03T04:54:48.498Z,101701.69
2022-12-03T04:55:51.016Z,101705.16
2022-12-03T04:56:53.739Z,101699.13
2022-12-03T04:57:56.860Z,101698.28
2022-12-03T04:58:59.934Z,101695.69
2022-12-03T05:00:03.052Z,101704.31
2022-12-03T05:01:06.632Z,101698.28
2022-12-03T05:02:09.979Z,101703.41
2022-12-03T05:03:13.299Z,101704.31
2022-12-03T05:04:16.400Z,101701.69
2022-12-03T05:05:19.124Z,101705.16
2022-12-03T05:06:22.331Z,101705.16
2022-12-03T05:07:24.922Z,101702.56
2022-12-03T05:08:27.934Z,101698.25
2022-12-03T05:09:31.638Z,101700.84
2022-12-03T05:10:34.289Z,101699.13
2022-12-03T05:11:36.995Z,101699.97
2022-12-03T05:12:39.851Z,101703.44
2022-12-03T05:13:43.292Z,101702.59
2022-12-03T05:14:46.000Z,101700.84
2022-12-03T05:15:49.015Z,101707.75
2022-12-03T05:16:51.676Z,101705.16
2022-12-03T05:17:54.974Z,101701.75
2022-12-03T05:18:58.343Z,101702.59
2022-12-03T05:20:19.639Z,101706.91
2022-12-03T05:21:22.369Z,101702.59
2022-12-03T05:22:24.963Z,101708.59
2022-12-03T05:23:28.222Z,101702.59
2022-12-03T05:24:31.040Z,101706.03
2022-12-03T05:25:33.660Z,101707.78
2022-12-03T05:26:36.614Z,101717.25
2022-12-03T05:27:39.238Z,101706.03
2022-12-03T05:28:41.922Z,101700.00
2022-12-03T05:29:44.847Z,101708.66
2022-12-03T05:30:47.569Z,101707.78
2022-12-03T05:31:50.167Z,101705.19
2022-12-03T05:32:52.928Z,101701.75
2022-12-03T05:33:55.547Z,101700.88
2022-12-03T05:34:58.452Z,101698.31
2022-12-03T05:36:01.706Z,101700.03
2022-12-03T05:37:04.982Z,101695.72
2022-12-03T05:38:08.140Z,101700.91
2022-12-03T05:39:10.654Z,101702.62
2022-12-03T05:40:15.075Z,101697.44
2022-12-03T05:41:36.174Z,101702.62
2022-12-03T05:42:54.337Z,101702.59
2022-12-03T05:43:56.996Z,101704.34
2022-12-03T05:44:59.541Z,101699.19
2022-12-03T05:46:02.408Z,101700.91
2022-12-03T05:47:05.662Z,101701.75
2022-12-03T05:48:10.711Z,101704.34
2022-12-03T05:49:13.835Z,101699.16
2022-12-03T05:50:16.787Z,101696.56
2022-12-03T05:51:19.683Z,101703.44
2022-12-03T05:52:22.190Z,101660.28
2022-12-03T05:53:29.475Z,101698.25
2022-12-03T05:54:32.519Z,101706.00
2022-12-03T05:55:35.092Z,101700.81
2022-12-03T05:56:39.272Z,101699.09
2022-12-03T05:57:42.106Z,101702.53
2022-12-03T05:58:45.266Z,101695.66
2022-12-03T05:59:47.926Z,101701.69
2022-12-03T06:00:50.504Z,101706.84
2022-12-03T06:01:53.418Z,101706.00
2022-12-03T06:02:57.340Z,101709.41
2022-12-03T06:04:00.123Z,101711.16
2022-12-03T06:05:03.088Z,101705.97
2022-12-03T06:06:05.984Z,101712.88
2022-12-03T06:07:13.783Z,101716.31
2022-12-03T06:08:17.023Z,101707.69
2022-12-03T06:09:25.157Z,101710.28
2022-12-03T06:10:27.813Z,101715.44
2022-12-03T06:11:30.480Z,101709.38
2022-12-03T06:12:33.330Z,101711.97
2022-12-03T06:13:35.934Z,101717.13
2022-12-03T06:14:38.457Z,101712.78
2022-12-03T06:15:43.888Z,101711.97
2022-12-03T06:16:46.865Z,101717.13
2022-12-03T06:17:50.078Z,101725.72
2022-12-03T06:18:52.638Z,101711.13
2022-12-03T06:19:55.188Z,101717.13
2022-12-03T06:20:57.781Z,101712.84
2022-12-03T06:22:00.425Z,101714.56
2022-12-03T06:23:03.356Z,101711.13
2022-12-03T06:24:06.250Z,101707.69
2022-12-03T06:25:10.028Z,101712.81
2022-12-03T06:26:13.863Z,101706.81
2022-12-03T06:27:16.541Z,101707.66
2022-12-03T06:28:19.576Z,101708.53
2022-12-03T06:29:22.140Z,101711.13
2022-12-03T06:30:25.192Z,101710.25
2022-12-03T06:31:27.816Z,101714.53
2022-12-03T06:32:31.106Z,101712.84
2022-12-03T06:33:34.241Z,101715.44
2022-12-03T06:34:37.482Z,101712.84
2022-12-03T06:35:40.466Z,101717.16
2022-12-03T06:36:43.173Z,101723.22
2022-12-03T06:37:45.819Z,101721.47
2022-12-03T06:38:48.647Z,101715.44
2022-12-03T06:39:51.799Z,101724.87
2022-12-03T06:40:54.334Z,101730.94
2022-12-03T06:41:56.914Z,101733.53
2022-12-03T06:42:59.442Z,101730.06
2022-12-03T06:44:02.285Z,101740.41
2022-12-03T06:45:05.291Z,101731.81
2022-12-03T06:46:07.889Z,101733.53
2022-12-03T06:47:10.564Z,101727.50
2022-12-03T06:48:13.136Z,101724.06
2022-12-03T06:49:16.777Z,101728.37
2022-12-03T06:50:19.326Z,101736.97
2022-12-03T06:51:21.847Z,101742.16
2022-12-03T06:52:24.765Z,101735.25
2022-12-03T06:53:27.444Z,101737.00
2022-12-03T06:54:30.381Z,101743.91
2022-12-03T06:55:32.935Z,101729.25
2022-12-03T06:56:41.825Z,101743.91
2022-12-03T06:57:48.309Z,101742.16
2022-12-03T06:58:50.923Z,101740.44
2022-12-03T06:59:54.075Z,101742.19
2022-12-03T07:00:56.803Z,101741.34
2022-12-03T07:01:59.398Z,101747.38
2022-12-03T07:03:02.082Z,101742.19
2022-12-03T07:04:04.902Z,101753.41
2022-12-03T07:05:08.079Z,101744.75
2022-12-03T07:06:10.736Z,101743.94
2022-12-03T07:07:14.249Z,101744.78
2022-12-03T07:08:17.518Z,101744.81
2022-12-03T07:09:20.228Z,101739.63
2022-12-03T07:10:23.160Z,101741.38
2022-12-03T07:11:31.810Z,101747.41
2022-12-03T07:12:34.395Z,101738.78
2022-12-03T07:13:36.901Z,101744.84
2022-12-03T07:14:39.452Z,101748.28
2022-12-03T07:15:42.437Z,101750.03
2022-12-03T07:16:45.232Z,101750.03
2022-12-03T07:17:47.886Z,101743.13
2022-12-03T07:18:51.084Z,101744.84
2022-12-03T07:19:53.966Z,101745.72
2022-12-03T07:20:56.883Z,101744.00
2022-12-03T07:21:59.474Z,101744.03
2022-12-03T07:23:02.149Z,101746.63
2022-12-03T07:24:05.636Z,101743.16
2022-12-03T07:25:08.865Z,101735.41
2022-12-03T07:26:12.212Z,101745.75
2022-12-03T07:27:14.874Z,101737.97
2022-12-03T07:28:17.441Z,101738.00
2022-12-03T07:29:20.625Z,101742.31
2022-12-03T07:30:24.358Z,101736.28
2022-12-03T07:31:27.348Z,101743.19
2022-12-03T07:32:30.636Z,101747.47
2022-12-03T07:33:33.654Z,101740.62
2022-12-03T07:34:36.217Z,101744.91
2022-12-03T07:35:39.904Z,101705.25
2022-12-03T07:36:43.375Z,101737.12
2022-12-03T07:37:45.916Z,101743.19
2022-12-03T07:38:48.969Z,101740.62
2022-12-03T07:39:54.666Z,101742.31
2022-12-03T07:40:57.209Z,101737.16
2022-12-03T07:42:00.016Z,101744.91
2022-12-03T07:43:02.999Z,101742.34
2022-12-03T07:44:10.814Z,101739.75
2022-12-03T07:45:17.002Z,101734.56
2022-12-03T07:46:19.660Z,101737.16
2022-12-03T07:47:22.842Z,101737.16
2022-12-03T07:48:25.615Z,101738.00
2022-12-03T07:49:28.142Z,101738.87
2022-12-03T07:50:31.181Z,101728.53
2022-12-03T07:51:33.781Z,101729.38
2022-12-03T07:52:36.754Z,101738.84
2022-12-03T07:53:40.023Z,101731.97
2022-12-03T07:54:42.633Z,101727.63
2022-12-03T07:55:45.229Z,101725.03
2022-12-03T07:56:49.099Z,101729.34
2022-12-03T07:57:52.078Z,101722.47
2022-12-03T07:58:54.726Z,101728.47
2022-12-03T07:59:57.870Z,101722.44
2022-12-03T08:01:00.507Z,101726.75
2022-12-03T08:02:03.771Z,101723.28
2022-12-03T08:03:06.819Z,101725.00
2022-12-03T08:04:09.430Z,101725.84
2022-12-03T08:05:13.228Z,101725.00
2022-12-03T08:06:15.899Z,101724.16
2022-12-03T08:07:19.033Z,101734.47
2022-12-03T08:08:21.657Z,101728.44
2022-12-03T08:09:24.287Z,101731.87
2022-12-03T08:10:27.418Z,101733.56
2022-12-03T08:11:29.956Z,101743.03
2022-12-03T08:12:42.282Z,101737.00
2022-12-03T08:13:44.976Z,101739.59
2022-12-03T08:14:47.879Z,101738.69
2022-12-03T08:15:50.484Z,101737.81
2022-12-03T08:16:53.507Z,101740.41
2022-12-03T08:18:01.446Z,101739.53
2022-12-03T08:19:09.250Z,101731.72
2022-12-03T08:20:15.952Z,101730.88
2022-12-03T08:21:21.114Z,101731.69
2022-12-03T08:22:23.819Z,101726.53
2022-12-03T08:23:26.705Z,101734.31
2022-12-03T08:24:30.515Z,101733.44
2022-12-03T08:25:33.766Z,101728.22
2022-12-03T08:26:36.491Z,101730.81
2022-12-03T08:27:39.531Z,101733.41
2022-12-03T08:28:42.979Z,101729.09
2022-12-03T08:29:46.732Z,101731.66
2022-12-03T08:31:12.670Z,101735.06
2022-12-03T08:32:15.363Z,101731.63
2022-12-03T08:33:28.235Z,101733.31
2022-12-03T08:34:38.933Z,101734.19
2022-12-03T08:35:43.955Z,101735.03
2022-12-03T08:36:50.665Z,101736.75
2022-12-03T08:38:05.745Z,101740.16
2022-12-03T08:39:33.646Z,101734.97
2022-12-03T08:40:40.904Z,101734.94
2022-12-03T08:42:01.856Z,101734.94
2022-12-03T08:43:17.268Z,101729.72
2022-12-03T08:44:29.265Z,101734.03
2022-12-03T08:45:39.752Z,101739.22
2022-12-03T08:46:43.118Z,101736.56
2022-12-03T08:47:46.372Z,101740.03
2022-12-03T08:48:49.802Z,101733.09
2022-12-03T08:49:59.977Z,101735.66
2022-12-03T08:51:32.258Z,101728.75
2022-12-03T08:52:35.262Z,101741.69
2022-12-03T08:53:42.630Z,101738.19
2022-12-03T08:54:58.585Z,101731.31
2022-12-03T08:56:13.074Z,101740.78
2022-12-03T08:57:35.001Z,101737.34
2022-12-03T08:58:46.954Z,101733.03
2022-12-03T08:59:54.562Z,101738.13
2022-12-03T09:01:24.564Z,101744.19
2022-12-03T09:02:33.475Z,101745.09
2022-12-03T09:03:37.015Z,101732.06
2022-12-03T09:04:46.947Z,101745.00
2022-12-03T09:05:50.282Z,101742.44
2022-12-03T09:06:54.046Z,101739.81
2022-12-03T09:07:56.883Z,101746.75
2022-12-03T09:09:05.132Z,101743.25
2022-12-03T09:10:11.362Z,101745.78
2022-12-03T09:11:14.742Z,101748.34
2022-12-03T09:12:17.480Z,101743.09
2022-12-03T09:13:20.421Z,101748.19
2022-12-03T09:14:23.783Z,101746.41
2022-12-03T09:15:26.769Z,101742.06
2022-12-03T09:16:29.796Z,101737.75
2022-12-03T09:17:33.168Z,101746.44
2022-12-03T09:18:35.924Z,101735.16
2022-12-03T09:19:46.311Z,101742.06
2022-12-03T09:20:49.960Z,101742.00
2022-12-03T09:21:53.813Z,101742.88
2022-12-03T09:22:56.769Z,101731.72
2022-12-03T09:23:59.376Z,101742.06
2022-12-03T09:25:04.950Z,101723.97
2022-12-03T09:26:07.939Z,101737.81
2022-12-03T09:27:11.119Z,101739.47
2022-12-03T09:28:13.842Z,101737.69
2022-12-03T09:29:16.435Z,101744.56
2022-12-03T09:30:19.462Z,101747.16
2022-12-03T09:31:22.460Z,101737.59
2022-12-03T09:32:25.371Z,101744.34
2022-12-03T09:33:28.376Z,101743.38
2022-12-03T09:34:31.025Z,101742.28
2022-12-03T09:35:33.757Z,101728.19
2022-12-03T09:36:37.038Z,101744.31
2022-12-03T09:37:39.647Z,101740.53
2022-12-03T09:38:46.224Z,101740.22
2022-12-03T09:39:51.190Z,101745.16
2022-12-03T09:40:54.216Z,101740.53
2022-12-03T09:41:57.814Z,101742.34
2022-12-03T09:43:01.023Z,101740.53
2022-12-03T09:44:05.150Z,101736.00
2022-12-03T09:45:12.342Z,101727.19
2022-12-03T09:46:15.297Z,101730.31
2022-12-03T09:47:18.848Z,101726.31
2022-12-03T09:48:22.485Z,101720.88
2022-12-03T09:49:25.141Z,101722.44
2022-12-03T09:50:28.355Z,101726.78
2022-12-03T09:51:35.344Z,101726.78
2022-12-03T09:52:38.231Z,101720.59
2022-12-03T09:53:41.814Z,101726.47
2022-12-03T09:54:47.578Z,101728.16
2022-12-03T09:55:50.403Z,101723.06
2022-12-03T09:56:55.143Z,101721.94
2022-12-03T09:57:58.920Z,101720.53
2022-12-03T09:59:02.498Z,101726.31
2022-12-03T10:00:20.218Z,101723.53
2022-12-03T10:01:25.833Z,101712.22
2022-12-03T10:02:31.463Z,101722.66
2022-12-03T10:03:34.081Z,101718.56
2022-12-03T10:04:36.732Z,101714.69
2022-12-03T10:05:43.798Z,101720.75
2022-12-03T10:06:51.371Z,101710.06
2022-12-03T10:08:03.671Z,101701.44
2022-12-03T10:09:07.140Z,101703.97
2022-12-03T10:10:22.738Z,101712.47
2022-12-03T10:11:25.933Z,101705.38
2022-12-03T10:12:29.299Z,101699.03
2022-12-03T10:13:34.598Z,101700.94
2022-12-03T10:14:37.264Z,101696.25
2022-12-03T10:15:39.996Z,101698.53
2022-12-03T10:16:43.065Z,101693.44
2022-12-03T10:17:47.965Z,101681.50
2022-12-03T10:18:56.186Z,101691.06
2022-12-03T10:19:58.837Z,101690.47
2022-12-03T10:21:02.141Z,101693.88
2022-12-03T10:22:04.815Z,101687.66
2022-12-03T10:23:07.654Z,101692.91
2022-12-03T10:24:22.580Z,101691.59
2022-12-03T10:25:25.149Z,101696.50
2022-12-03T10:26:40.773Z,101693.56
2022-12-03T10:27:55.126Z,101697.94
2022-12-03T10:28:58.477Z,101694.63
2022-12-03T10:30:03.916Z,101693.25
2022-12-03T10:31:09.568Z,101689.31
2022-12-03T10:32:12.898Z,101692.06
2022-12-03T10:33:19.033Z,101683.84
2022-12-03T10:34:30.787Z,101688.13
2022-12-03T10:35:44.266Z,101682.09
2022-12-03T10:36:47.201Z,101678.09
2022-12-03T10:38:00.532Z,101671.94
2022-12-03T10:39:08.615Z,101667.56
2022-12-03T10:40:12.412Z,101670.19
2022-12-03T10:41:30.304Z,101668.38
2022-12-03T10:42:34.461Z,101667.63
2022-12-03T10:43:37.581Z,101667.22
2022-12-03T10:44:40.228Z,101667.66
2022-12-03T10:45:44.537Z,101664.37
2022-12-03T10:47:07.704Z,101664.63
2022-12-03T10:48:27.521Z,101664.37
2022-12-03T10:49:30.720Z,101661.41
2022-12-03T10:50:34.658Z,101652.81
2022-12-03T10:51:39.245Z,101655.75
2022-12-03T10:52:42.347Z,101646.69
2022-12-03T10:53:44.925Z,101648.19
2022-12-03T10:54:49.956Z,101659.25
2022-12-03T10:55:58.831Z,101648.56
2022-12-03T10:57:02.182Z,101642.94
2022-12-03T10:58:05.310Z,101645.66
2022-12-03T10:59:18.425Z,101642.94
2022-12-03T11:00:21.532Z,101646.16
2022-12-03T11:01:26.546Z,101635.16
2022-12-03T11:02:29.505Z,101645.56
2022-12-03T11:03:37.284Z,101640.19
2022-12-03T11:04:41.022Z,101637.75
2022-12-03T11:05:43.606Z,101645.03
2022-12-03T11:06:48.450Z,101642.59
2022-12-03T11:07:51.348Z,101637.88
2022-12-03T11:08:59.447Z,101635.50
2022-12-03T11:10:07.350Z,101635.34
2022-12-03T11:11:19.766Z,101642.03
2022-12-03T11:12:34.672Z,101641.41
2022-12-03T11:13:37.786Z,101640.78
2022-12-03T11:14:56.654Z,101638.50
2022-12-03T11:16:05.711Z,101627.84
2022-12-03T11:17:08.596Z,101642.19
2022-12-03T11:18:11.252Z,101634.88
2022-12-03T11:19:45.424Z,101631.91
2022-12-03T11:20:47.978Z,101635.78
2022-12-03T11:22:05.961Z,101637.31
2022-12-03T11:23:10.575Z,101635.81
2022-12-03T11:24:19.924Z,101638.69
2022-12-03T11:25:25.734Z,101639.16
2022-12-03T11:26:28.860Z,101635.25
2022-12-03T11:27:31.515Z,101639.06
2022-12-03T11:28:36.690Z,101638.94
2022-12-03T11:29:44.906Z,101643.34
2022-12-03T11:30:51.070Z,101635.19
2022-12-03T11:31:54.247Z,101642.25
2022-12-03T11:33:00.913Z,101642.66
2022-12-03T11:34:18.570Z,101641.50
2022-12-03T11:35:24.165Z,101635.19
2022-12-03T11:36:42.290Z,101636.31
2022-12-03T11:37:50.333Z,101639.41
2022-12-03T11:38:55.819Z,101633.03
2022-12-03T11:40:00.805Z,101632.69
2022-12-03T11:41:15.133Z,101624.09
2022-12-03T11:42:26.652Z,101626.84
2022-12-03T11:43:57.760Z,101627.97
2022-12-03T11:45:06.171Z,101630.00
2022-12-03T11:46:10.325Z,101623.16
2022-12-03T11:47:16.175Z,101625.44
2022-12-03T11:48:20.156Z,101634.03
2022-12-03T11:49:29.916Z,101633.16
2022-12-03T11:50:40.553Z,101623.94
2022-12-03T11:51:44.846Z,101624.66
2022-12-03T11:53:02.094Z,101627.25
2022-12-03T11:54:05.382Z,101627.03
2022-12-03T11:55:25.705Z,101627.34
2022-12-03T11:56:29.911Z,101628.22
2022-12-03T11:57:38.490Z,101627.25
2022-12-03T11:58:43.723Z,101624.62
2022-12-03T12:00:01.280Z,101621.59
2022-12-03T12:01:06.539Z,101624.22
2022-12-03T12:02:24.843Z,101616.63
2022-12-03T12:03:35.823Z,101615.44
2022-12-03T12:04:38.493Z,101625.66
2022-12-03T12:05:41.475Z,101622.41
2022-12-03T12:06:47.485Z,101625.69
2022-12-03T12:07:55.650Z,101613.25
2022-12-03T12:08:59.605Z,101621.66
2022-12-03T12:10:03.564Z,101619.09
2022-12-03T12:11:29.537Z,101616.13
2022-12-03T12:12:38.837Z,101615.75
2022-12-03T12:13:41.599Z,101609.37
2022-12-03T12:14:44.160Z,101612.53
2022-12-03T12:15:47.601Z,101605.16
2022-12-03T12:16:55.408Z,101607.41
2022-12-03T12:18:36.345Z,101607.41
2022-12-03T12:19:43.379Z,101611.38
2022-12-03T12:20:46.229Z,101620.97
2022-12-03T12:21:49.992Z,101605.50
2022-12-03T12:22:54.886Z,101611.59
2022-12-03T12:23:57.376Z,101622.97
2022-12-03T12:25:40.340Z,101617.72
2022-12-03T12:26:51.343Z,101607.13